createdAt,value
2022-08-22T00:01:02.364Z,4.72
2022-08-22T00:02:53.684Z,3.13
2022-08-22T00:03:00.472Z,2.83
2022-08-22T00:03:01.921Z,3.45
2022-08-22T00:03:46.440Z,4.78
2022-08-22T00:06:31.248Z,4.80
2022-08-22T00:10:03.405Z,4.25
2022-08-22T00:13:04.419Z,4.75
2022-08-22T00:15:52.487Z,4.68
2022-08-22T00:18:34.697Z,4.72
2022-08-22T00:21:34.789Z,4.80
2022-08-22T00:24:23.213Z,4.72
2022-08-22T00:27:16.981Z,4.88
2022-08-22T00:30:04.282Z,4.88
2022-08-22T00:32:50.036Z,5.65
2022-08-22T00:36:10.230Z,5.40
2022-08-22T00:38:50.854Z,5.03
2022-08-22T00:41:54.979Z,6.07
2022-08-22T00:44:39.667Z,5.60
2022-08-22T00:47:36.370Z,6.13
2022-08-22T00:50:42.014Z,5.75
2022-08-22T00:53:36.498Z,6.20
2022-08-22T00:56:27.622Z,5.15
2022-08-22T00:59:23.468Z,5.47
2022-08-22T01:02:11.089Z,5.03
2022-08-22T01:04:52.117Z,5.18
2022-08-22T01:07:44.557Z,5.88
2022-08-22T01:10:35.917Z,5.55
2022-08-22T01:13:34.525Z,5.18
2022-08-22T01:16:35.046Z,5.03
2022-08-22T01:19:23.081Z,5.13
2022-08-22T01:22:48.963Z,5.45
2022-08-22T01:26:19.503Z,5.75
2022-08-22T01:29:28.213Z,5.53
2022-08-22T01:32:31.010Z,5.13
2022-08-22T01:35:50.458Z,4.72
2022-08-22T01:38:41.582Z,5.25
2022-08-22T01:41:35.584Z,5.43
2022-08-22T01:44:12.113Z,5.32
2022-08-22T01:47:11.963Z,5.57
2022-08-22T01:49:51.791Z,5.28
2022-08-22T01:52:50.807Z,5.20
2022-08-22T01:55:34.673Z,5.03
2022-08-22T01:58:15.672Z,5.13
2022-08-22T02:01:22.090Z,4.82
2022-08-22T02:04:28.724Z,5.07
2022-08-22T02:07:53.394Z,4.90
2022-08-22T02:11:07.151Z,4.90
2022-08-22T02:13:54.974Z,4.68
2022-08-22T02:16:30.793Z,4.75
2022-08-22T02:19:15.792Z,5.10
2022-08-22T02:22:50.410Z,5.00
2022-08-22T02:28:28.121Z,5.30
2022-08-22T02:31:17.047Z,4.63
2022-08-22T02:33:46.799Z,5.32
2022-08-22T02:36:25.081Z,4.43
2022-08-22T02:39:32.321Z,4.88
2022-08-22T02:42:28.403Z,4.38
2022-08-22T02:45:20.795Z,4.30
2022-08-22T02:48:11.556Z,4.15
2022-08-22T02:50:51.605Z,3.70
2022-08-22T02:53:33.652Z,4.20
2022-08-22T02:56:12.455Z,3.75
2022-08-22T02:58:45.193Z,4.13
2022-08-22T03:01:29.117Z,4.45
2022-08-22T03:04:18.024Z,4.38
2022-08-22T03:07:14.643Z,4.22
2022-08-22T03:10:10.204Z,4.72
2022-08-22T03:13:09.631Z,4.43
2022-08-22T03:16:10.858Z,4.15
2022-08-22T03:19:31.626Z,5.40
2022-08-22T03:22:08.395Z,4.88
2022-08-22T03:25:02.501Z,5.25
2022-08-22T03:27:42.272Z,5.30
2022-08-22T03:30:30.945Z,5.13
2022-08-22T03:33:27.641Z,5.70
2022-08-22T03:36:17.620Z,5.32
2022-08-22T03:39:17.565Z,4.72
2022-08-22T03:42:09.481Z,5.47
2022-08-22T03:45:14.045Z,5.32
2022-08-22T03:48:17.644Z,5.18
2022-08-22T03:51:15.433Z,5.38
2022-08-22T03:54:19.254Z,5.03
2022-08-22T03:57:06.120Z,5.10
2022-08-22T03:59:54.139Z,5.47
2022-08-22T04:03:07.311Z,5.38
2022-08-22T04:06:25.767Z,5.18
2022-08-22T04:09:32.773Z,5.60
2022-08-22T04:12:27.146Z,6.25
2022-08-22T04:15:26.577Z,5.50
2022-08-22T04:18:14.569Z,5.45
2022-08-22T04:21:02.269Z,5.28
2022-08-22T04:24:15.447Z,6.15
2022-08-22T04:26:50.799Z,6.15
2022-08-22T04:29:55.261Z,5.43
2022-08-22T04:32:25.352Z,5.43
2022-08-22T04:35:11.984Z,6.35
2022-08-22T04:37:52.362Z,6.63
2022-08-22T04:40:27.593Z,6.63
2022-08-22T04:43:09.052Z,6.20
2022-08-22T04:45:46.189Z,5.90
2022-08-22T04:48:29.602Z,6.95
2022-08-22T04:51:15.560Z,6.50
2022-08-22T04:54:39.894Z,6.47
2022-08-22T04:57:31.134Z,6.25
2022-08-22T05:00:05.997Z,6.55
2022-08-22T05:02:38.874Z,6.20
2022-08-22T05:05:16.558Z,6.20
2022-08-22T05:07:55.437Z,6.68
2022-08-22T05:10:42.106Z,6.95
2022-08-22T05:13:21.609Z,6.43
2022-08-22T05:15:54.730Z,6.95
2022-08-22T05:18:40.310Z,6.43
2022-08-22T05:21:13.932Z,6.78
2022-08-22T05:24:03.457Z,6.55
2022-08-22T05:26:38.972Z,7.25
2022-08-22T05:29:09.522Z,7.47
2022-08-22T05:31:49.246Z,6.80
2022-08-22T05:34:26.666Z,7.18
2022-08-22T05:37:04.605Z,6.95
2022-08-22T05:39:40.424Z,7.45
2022-08-22T05:42:15.919Z,7.32
2022-08-22T05:44:43.201Z,7.30
2022-08-22T05:47:23.539Z,7.38
2022-08-22T05:50:05.323Z,6.82
2022-08-22T05:52:40.972Z,8.10
2022-08-22T05:55:25.687Z,8.50
2022-08-22T05:58:11.645Z,7.43
2022-08-22T06:00:45.170Z,7.32
2022-08-22T06:03:27.668Z,6.82
2022-08-22T06:06:03.308Z,7.03
2022-08-22T06:09:16.545Z,7.03
2022-08-22T06:11:55.080Z,8.00
2022-08-22T06:15:20.977Z,6.43
2022-08-22T06:17:55.816Z,6.35
2022-08-22T06:20:34.926Z,7.03
2022-08-22T06:23:05.435Z,7.07
2022-08-22T06:25:40.737Z,8.07
2022-08-22T06:28:16.789Z,7.28
2022-08-22T06:30:47.631Z,8.40
2022-08-22T06:33:23.913Z,7.78
2022-08-22T06:36:20.578Z,8.15
2022-08-22T06:39:16.920Z,7.88
2022-08-22T06:41:59.111Z,7.90
2022-08-22T06:44:50.479Z,8.13
2022-08-22T06:47:33.558Z,8.82
2022-08-22T06:50:15.219Z,7.50
2022-08-22T06:53:26.671Z,7.97
2022-08-22T06:56:07.421Z,8.93
2022-08-22T06:58:45.867Z,9.02
2022-08-22T07:01:25.249Z,8.05
2022-08-22T07:03:59.401Z,8.18
2022-08-22T07:06:41.292Z,8.57
2022-08-22T07:09:19.346Z,8.05
2022-08-22T07:14:18.419Z,8.50
2022-08-22T07:17:02.122Z,8.52
2022-08-22T07:19:38.126Z,8.65
2022-08-22T07:22:30.423Z,9.90
2022-08-22T07:25:14.508Z,8.35
2022-08-22T07:28:08.569Z,8.75
2022-08-22T07:31:02.680Z,8.82
2022-08-22T07:33:50.412Z,8.70
2022-08-22T07:36:46.882Z,9.63
2022-08-22T07:39:30.654Z,9.27
2022-08-22T07:42:17.454Z,8.75
2022-08-22T07:45:08.263Z,9.25
2022-08-22T07:47:52.642Z,9.20
2022-08-22T07:50:30.028Z,10.35
2022-08-22T07:53:16.808Z,9.55
2022-08-22T07:55:49.658Z,9.60
2022-08-22T07:58:19.311Z,9.10
2022-08-22T08:00:50.279Z,10.15
2022-08-22T08:03:23.024Z,9.30
2022-08-22T08:05:50.533Z,9.65
2022-08-22T08:08:43.936Z,9.52
2022-08-22T08:11:16.922Z,9.48
2022-08-22T08:13:52.770Z,9.65
2022-08-22T08:16:25.179Z,9.15
2022-08-22T08:18:57.031Z,9.40
2022-08-22T08:21:53.460Z,9.73
2022-08-22T08:24:31.552Z,9.07
2022-08-22T08:27:32.973Z,9.27
2022-08-22T08:30:15.289Z,8.77
2022-08-22T08:32:49.361Z,8.75
2022-08-22T08:35:25.663Z,8.52
2022-08-22T08:38:08.664Z,8.70
2022-08-22T08:41:00.359Z,8.07
2022-08-22T08:43:40.531Z,8.18
2022-08-22T08:46:25.585Z,8.43
2022-08-22T08:49:30.794Z,7.70
2022-08-22T08:52:25.172Z,6.60
2022-08-22T08:55:19.991Z,7.40
2022-08-22T08:58:40.368Z,6.78
2022-08-22T09:01:16.458Z,6.07
2022-08-22T09:04:54.682Z,6.82
2022-08-22T09:07:44.015Z,6.47
2022-08-22T09:10:47.304Z,7.80
2022-08-22T09:13:40.657Z,7.03
2022-08-22T09:17:04.911Z,4.80
2022-08-22T09:19:55.686Z,3.75
2022-08-22T09:22:50.157Z,3.53
2022-08-22T09:25:38.608Z,3.80
2022-08-22T09:28:40.977Z,3.08
2022-08-22T09:31:44.954Z,2.72
2022-08-22T09:34:29.626Z,3.20
2022-08-22T09:37:17.897Z,3.05
2022-08-22T09:40:06.451Z,2.92
2022-08-22T09:43:01.946Z,3.40
2022-08-22T09:45:40.717Z,3.45
2022-08-22T09:48:39.662Z,2.85
2022-08-22T09:52:15.412Z,3.03
2022-08-22T09:55:08.596Z,3.67
2022-08-22T09:57:50.629Z,3.92
2022-08-22T10:00:34.463Z,4.30
2022-08-22T10:06:20.034Z,3.15
2022-08-22T10:09:03.518Z,4.40
2022-08-22T10:11:45.843Z,4.07
2022-08-22T10:15:00.436Z,4.55
2022-08-22T10:17:41.132Z,3.47
2022-08-22T10:21:09.263Z,3.15
2022-08-22T10:23:52.735Z,3.10
2022-08-22T10:26:50.819Z,2.80
2022-08-22T10:30:05.229Z,2.63
2022-08-22T10:32:53.502Z,2.60
2022-08-22T10:36:07.796Z,2.85
2022-08-22T10:38:53.358Z,2.80
2022-08-22T10:42:00.620Z,2.60
2022-08-22T10:44:42.193Z,2.80
2022-08-22T10:47:21.290Z,2.78
2022-08-22T10:50:10.801Z,2.72
2022-08-22T10:56:16.143Z,2.90
2022-08-22T10:59:18.374Z,2.80
2022-08-22T11:02:27.609Z,2.35
2022-08-22T11:05:14.622Z,2.45
2022-08-22T11:07:50.256Z,2.13
2022-08-22T11:10:30.421Z,2.80
2022-08-22T11:13:29.298Z,2.30
2022-08-22T11:16:13.964Z,2.13
2022-08-22T11:19:15.847Z,2.50
2022-08-22T11:21:51.161Z,2.33
2022-08-22T11:25:02.352Z,2.30
2022-08-22T11:27:55.061Z,2.55
2022-08-22T11:30:59.959Z,2.35
2022-08-22T11:33:47.768Z,3.00
2022-08-22T11:36:31.486Z,2.65
2022-08-22T11:39:03.223Z,2.25
2022-08-22T11:41:59.325Z,2.00
2022-08-22T11:44:50.282Z,2.20
2022-08-22T11:47:27.191Z,2.63
2022-08-22T11:50:23.284Z,2.00
2022-08-22T11:53:15.022Z,2.25
2022-08-22T11:59:07.128Z,2.58
2022-08-22T12:01:55.326Z,2.30
2022-08-22T12:04:47.441Z,2.67
2022-08-22T12:07:21.751Z,2.63
2022-08-22T12:10:04.997Z,2.05
2022-08-22T12:13:06.640Z,2.30
2022-08-22T12:16:07.755Z,2.30
2022-08-22T12:19:06.101Z,2.15
2022-08-22T12:22:16.564Z,2.33
2022-08-22T12:25:33.226Z,2.30
2022-08-22T12:28:30.206Z,2.20
2022-08-22T12:31:34.827Z,2.58
2022-08-22T12:34:55.020Z,2.30
2022-08-22T12:37:36.174Z,2.45
2022-08-22T12:40:57.011Z,2.30
2022-08-22T12:43:44.643Z,2.38
2022-08-22T12:46:16.446Z,2.55
2022-08-22T12:49:10.965Z,2.25
2022-08-22T12:52:14.405Z,2.08
2022-08-22T12:54:52.897Z,2.20
2022-08-22T12:58:08.856Z,2.20
2022-08-22T13:00:49.011Z,2.65
2022-08-22T13:03:35.384Z,2.38
2022-08-22T13:06:33.862Z,2.47
2022-08-22T13:09:11.073Z,2.53
2022-08-22T13:11:43.419Z,2.33
2022-08-22T13:14:21.954Z,2.22
2022-08-22T13:17:10.267Z,2.42
2022-08-22T13:20:03.103Z,2.70
2022-08-22T13:22:35.445Z,2.53
2022-08-22T13:25:26.390Z,2.30
2022-08-22T13:28:03.786Z,2.13
2022-08-22T13:30:40.204Z,2.50
2022-08-22T13:33:11.186Z,2.03
2022-08-22T13:36:00.725Z,2.13
2022-08-22T13:38:46.558Z,2.88
2022-08-22T13:41:24.697Z,2.03
2022-08-22T13:44:16.243Z,2.25
2022-08-22T13:47:04.191Z,2.20
2022-08-22T13:49:41.149Z,2.30
2022-08-22T13:52:38.155Z,2.58
2022-08-22T13:55:29.465Z,2.47
2022-08-22T13:58:11.328Z,2.35
2022-08-22T14:01:15.879Z,2.20
2022-08-22T14:03:54.669Z,2.38
2022-08-22T14:06:46.432Z,2.35
2022-08-22T14:09:54.546Z,2.40
2022-08-22T14:12:56.631Z,1.90
2022-08-22T14:15:32.331Z,2.47
2022-08-22T14:18:30.456Z,2.90
2022-08-22T14:21:48.412Z,2.22
2022-08-22T14:24:29.936Z,2.08
2022-08-22T14:27:06.673Z,2.50
2022-08-22T14:29:56.576Z,2.47
2022-08-22T14:32:25.125Z,2.15
2022-08-22T14:35:23.522Z,2.15
2022-08-22T14:38:46.334Z,2.60
2022-08-22T14:41:56.135Z,3.03
2022-08-22T14:44:31.157Z,2.20
2022-08-22T14:47:04.371Z,2.40
2022-08-22T14:49:58.836Z,2.50
2022-08-22T14:52:50.342Z,2.15
2022-08-22T14:55:28.182Z,2.05
2022-08-22T14:58:03.468Z,2.35
2022-08-22T15:00:39.841Z,2.50
2022-08-22T15:03:37.421Z,2.28
2022-08-22T15:06:07.291Z,2.30
2022-08-22T15:08:50.439Z,2.17
2022-08-22T15:11:17.232Z,2.05
2022-08-22T15:14:13.433Z,2.40
2022-08-22T15:16:50.666Z,2.50
2022-08-22T15:19:23.268Z,2.05
2022-08-22T15:21:51.301Z,2.25
2022-08-22T15:24:20.680Z,2.60
2022-08-22T15:26:55.464Z,2.60
2022-08-22T15:29:31.776Z,2.17
2022-08-22T15:32:03.206Z,2.42
2022-08-22T15:34:41.819Z,2.50
2022-08-22T15:37:18.029Z,2.80
2022-08-22T15:40:08.445Z,2.40
2022-08-22T15:42:48.839Z,2.28
2022-08-22T15:45:39.525Z,2.28
2022-08-22T15:48:26.567Z,2.08
2022-08-22T15:51:10.171Z,2.65
2022-08-22T15:54:24.937Z,2.53
2022-08-22T15:59:54.114Z,2.75
2022-08-22T16:05:11.575Z,2.28
2022-08-22T16:08:02.692Z,2.30
2022-08-22T16:10:56.041Z,2.50
2022-08-22T16:13:29.565Z,2.40
2022-08-22T16:16:08.316Z,2.25
2022-08-22T16:18:39.226Z,2.55
2022-08-22T16:21:13.252Z,2.20
2022-08-22T16:23:58.088Z,2.00
2022-08-22T16:26:24.818Z,2.17
2022-08-22T16:29:07.051Z,2.42
2022-08-22T16:31:45.999Z,2.70
2022-08-22T16:34:16.162Z,2.00
2022-08-22T16:37:23.393Z,2.00
2022-08-22T16:40:13.089Z,2.00
2022-08-22T16:42:46.776Z,2.00
2022-08-22T16:45:36.041Z,2.75
2022-08-22T16:48:33.557Z,2.70
2022-08-22T16:51:18.703Z,1.92
2022-08-22T16:54:12.240Z,2.10
2022-08-22T16:56:53.569Z,2.42
2022-08-22T16:59:48.815Z,2.22
2022-08-22T17:02:43.632Z,2.10
2022-08-22T17:05:32.315Z,2.03
2022-08-22T17:08:11.843Z,2.13
2022-08-22T17:11:01.631Z,1.92
2022-08-22T17:13:48.977Z,2.28
2022-08-22T17:17:01.466Z,2.25
2022-08-22T17:19:39.259Z,2.33
2022-08-22T17:22:22.603Z,2.10
2022-08-22T17:25:33.994Z,2.30
2022-08-22T17:28:09.842Z,2.28
2022-08-22T17:31:10.542Z,2.47
2022-08-22T17:34:18.566Z,2.13
2022-08-22T17:36:49.972Z,2.45
2022-08-22T17:39:55.933Z,2.97
2022-08-22T17:42:44.217Z,2.60
2022-08-22T17:45:47.042Z,2.42
2022-08-22T17:48:25.334Z,2.63
2022-08-22T17:51:19.266Z,2.53
2022-08-22T17:54:21.520Z,2.50
2022-08-22T17:57:55.584Z,2.35
2022-08-22T18:03:32.309Z,2.40
2022-08-22T18:06:24.248Z,2.17
2022-08-22T18:09:13.628Z,2.30
2022-08-22T18:11:52.067Z,2.17
2022-08-22T18:14:46.485Z,2.65
2022-08-22T18:17:36.755Z,2.67
2022-08-22T18:20:21.197Z,2.38
2022-08-22T18:23:01.632Z,2.80
2022-08-22T18:25:40.747Z,2.58
2022-08-22T18:31:38.741Z,2.42
2022-08-22T18:34:24.560Z,2.70
2022-08-22T18:37:05.546Z,2.50
2022-08-22T18:39:50.077Z,2.80
2022-08-22T18:42:50.394Z,3.10
2022-08-22T18:45:46.809Z,2.53
2022-08-22T18:48:54.421Z,2.85
2022-08-22T18:51:38.680Z,2.97
2022-08-22T18:54:05.578Z,2.30
2022-08-22T18:57:22.716Z,2.58
2022-08-22T19:00:16.489Z,2.65
2022-08-22T19:02:57.668Z,3.05
2022-08-22T19:05:27.153Z,2.83
2022-08-22T19:07:59.986Z,3.47
2022-08-22T19:11:03.342Z,2.90
2022-08-22T19:14:08.626Z,3.42
2022-08-22T19:17:23.141Z,3.03
2022-08-22T19:20:14.634Z,2.92
2022-08-22T19:22:42.774Z,2.90
2022-08-22T19:25:28.555Z,2.55
2022-08-22T19:28:10.386Z,3.00
2022-08-22T19:31:14.930Z,3.20
2022-08-22T19:34:08.735Z,3.03
2022-08-22T19:36:36.176Z,3.10
2022-08-22T19:39:41.538Z,2.83
2022-08-22T19:42:27.786Z,2.80
2022-08-22T19:45:06.594Z,3.00
2022-08-22T19:47:43.457Z,2.70
2022-08-22T19:50:28.227Z,2.97
2022-08-22T19:53:25.069Z,2.90
2022-08-22T19:56:13.583Z,3.45
2022-08-22T19:58:59.491Z,3.25
2022-08-22T20:01:44.449Z,3.03
2022-08-22T20:04:40.721Z,3.00
2022-08-22T20:07:26.950Z,3.28
2022-08-22T20:10:20.724Z,3.53
2022-08-22T20:13:07.809Z,3.25
2022-08-22T20:16:19.037Z,3.85
2022-08-22T20:19:07.650Z,3.42
2022-08-22T20:22:00.021Z,3.63
2022-08-22T20:24:40.308Z,2.90
2022-08-22T20:27:27.803Z,3.25
2022-08-22T20:30:25.631Z,3.53
2022-08-22T20:32:59.670Z,3.22
2022-08-22T20:35:41.175Z,3.35
2022-08-22T20:38:15.621Z,3.13
2022-08-22T20:41:20.953Z,3.80
2022-08-22T20:43:58.436Z,3.67
2022-08-22T20:46:53.666Z,3.22
2022-08-22T20:49:32.489Z,3.88
2022-08-22T20:52:08.533Z,3.70
2022-08-22T20:54:40.855Z,3.58
2022-08-22T20:57:21.536Z,3.65
2022-08-22T20:59:51.402Z,3.75
2022-08-22T21:02:28.689Z,3.83
2022-08-22T21:05:11.221Z,3.20
2022-08-22T21:07:49.330Z,3.42
2022-08-22T21:10:46.367Z,3.47
2022-08-22T21:13:20.426Z,3.50
2022-08-22T21:16:10.928Z,3.35
2022-08-22T21:21:29.609Z,3.70
2022-08-22T21:24:08.067Z,4.00
2022-08-22T21:26:45.192Z,3.78
2022-08-22T21:29:11.955Z,3.50
2022-08-22T21:31:46.334Z,3.55
2022-08-22T21:34:24.349Z,3.88
2022-08-22T21:39:28.390Z,3.70
2022-08-22T21:42:00.991Z,3.20
2022-08-22T21:44:30.728Z,3.50
2022-08-22T21:47:30.873Z,4.50
2022-08-22T21:50:25.707Z,4.65
2022-08-22T21:52:55.287Z,3.70
2022-08-22T21:55:26.780Z,3.50
2022-08-22T21:58:11.991Z,3.25
2022-08-22T22:00:49.536Z,3.50
2022-08-22T22:03:25.474Z,3.90
2022-08-22T22:05:57.308Z,4.13
2022-08-22T22:08:29.167Z,3.65
2022-08-22T22:11:04.735Z,4.05
2022-08-22T22:13:35.317Z,3.53
2022-08-22T22:16:03.030Z,3.53
2022-08-22T22:18:35.621Z,3.60
2022-08-22T22:21:02.745Z,4.00
2022-08-22T22:23:29.942Z,3.70
2022-08-22T22:26:01.089Z,4.05
2022-08-22T22:28:40.148Z,3.70
2022-08-22T22:31:07.905Z,3.75
2022-08-22T22:33:39.600Z,3.63
2022-08-22T22:38:41.059Z,3.35
2022-08-22T22:41:08.459Z,4.25
2022-08-22T22:43:35.378Z,4.53
2022-08-22T22:46:02.330Z,4.50
2022-08-22T22:48:29.403Z,5.20
2022-08-22T22:50:56.257Z,4.97
2022-08-22T22:53:38.100Z,4.60
2022-08-22T22:56:09.586Z,4.78
2022-08-22T22:58:38.465Z,4.60
2022-08-22T23:01:23.507Z,4.88
2022-08-22T23:03:56.287Z,5.28
2022-08-22T23:06:26.575Z,5.97
2022-08-22T23:08:54.413Z,5.53
2022-08-22T23:11:26.901Z,6.25
2022-08-22T23:13:54.664Z,5.78
2022-08-22T23:16:27.277Z,5.72
2022-08-22T23:18:55.318Z,5.97
2022-08-22T23:21:30.093Z,5.72
2022-08-22T23:24:00.666Z,6.18
2022-08-22T23:26:28.968Z,6.43
2022-08-22T23:28:57.390Z,6.00
2022-08-22T23:31:29.430Z,6.07
2022-08-22T23:34:00.942Z,5.80
2022-08-22T23:36:29.609Z,6.22
2022-08-22T23:38:57.127Z,5.82
2022-08-22T23:41:24.126Z,6.25
2022-08-22T23:43:54.500Z,6.47
2022-08-22T23:46:25.742Z,5.65
2022-08-22T23:48:53.350Z,6.60
2022-08-22T23:51:23.884Z,6.35
2022-08-22T23:53:57.624Z,6.05
2022-08-22T23:56:53.613Z,6.38
2022-08-22T23:59:30.647Z,5.93
